Lake Providence, LA (71254)

2:53 AM CST on February 07, 2016 (GMT -0600)
APRSWXNET | | Change Station
CLOSE
Current Station
Personal Weather Station
Location: Monticello, LA
Elevation: 91 ft
Nearby Weather Stations

Elev 91 ft 32.61 °N, 91.35 °W | Updated 27 minutes ago

Clear
Clear
33 °F
Feels Like 33 °F
N
0
Wind Variable Wind from NNE
Gusts 0.0 mph

Today
High -- | Low -- °F
--% Chance of Precip.
Yesterday
High -- | Low -- °F
Precip. -- in
Pressure 30.33 in
Visibility 4.0 miles
Clouds Clear
Windchill 33 °F
Dew Point 30 °F
Humidity 88%
Rainfall in
Snow Depth Not available.
6:55 AM 5:42 PM
Waning Crescent, 2% visible
METAR KTVR 070753Z AUTO 00000KT 4SM BR CLR 01/M01 A3031 RMK AO2 SLP270 T00111006
Pressure 30.33 in
Visibility 4.0 miles
Clouds Clear
Windchill 33 °F
Dew Point 30 °F
Humidity 88%
Rainfall in
Snow Depth Not available.
6:55 AM 5:42 PM
Waning Crescent, 2% visible
METAR KTVR 070753Z AUTO 00000KT 4SM BR CLR 01/M01 A3031 RMK AO2 SLP270 T00111006

10-Day Weather Forecast

Almanac

Astronomy

Feb. 07, 2016 Rise Set
Actual Time
Civil Twilight
Nautical Twilight
Astronomical Twilight
Moon
Length of Visible Light
Length of Day
Tomorrow will be .
, % of the Moon is Illuminated

Today's Extremes

State Highs State Lows

Community

WunderPhotos

Upload Photos

1,891,171 photos uploaded!

WunderBlog® & News

Nearby

Air Quality

  Air Quality AQ Index Pollutant
Not available.

Snow Depth

Station Depth Elevation

Earthquake Activity

City Distance Mag. Time & Date
Minimum magnitude displayed is 2.5.

Coastal Water Temperatures

Place Temperature

Stations

Nearby Weather Stations

Station Location Temp. Windchill Dew Point Humidity Wind Precip. Elev Updated Type
                   

Watches & Warnings

There are currently no watches in effect.